sensor_id;sensor_type;location;lat;lon;timestamp;P1;durP1;ratioP1;P2;durP2;ratioP2
32445;SDS011;18899;50.748;7.102;2022-11-20T00:01:24;29.35;;;12.20;;
32445;SDS011;18899;50.748;7.102;2022-11-20T00:03:51;27.38;;;12.77;;
32445;SDS011;18899;50.748;7.102;2022-11-20T00:06:18;25.63;;;12.65;;
32445;SDS011;18899;50.748;7.102;2022-11-20T00:08:45;33.58;;;13.95;;
32445;SDS011;18899;50.748;7.102;2022-11-20T00:11:18;28.40;;;12.80;;
32445;SDS011;18899;50.748;7.102;2022-11-20T00:13:47;27.83;;;12.50;;
32445;SDS011;18899;50.748;7.102;2022-11-20T00:16:15;28.23;;;12.30;;
32445;SDS011;18899;50.748;7.102;2022-11-20T00:18:42;29.38;;;13.48;;
32445;SDS011;18899;50.748;7.102;2022-11-20T00:21:15;25.80;;;12.60;;
32445;SDS011;18899;50.748;7.102;2022-11-20T00:23:43;27.08;;;12.30;;
32445;SDS011;18899;50.748;7.102;2022-11-20T00:26:10;29.17;;;12.73;;
32445;SDS011;18899;50.748;7.102;2022-11-20T00:28:40;29.73;;;13.63;;
32445;SDS011;18899;50.748;7.102;2022-11-20T00:31:08;27.50;;;12.50;;
32445;SDS011;18899;50.748;7.102;2022-11-20T00:33:36;26.63;;;12.68;;
32445;SDS011;18899;50.748;7.102;2022-11-20T00:36:02;31.38;;;13.30;;
32445;SDS011;18899;50.748;7.102;2022-11-20T00:38:32;29.65;;;12.93;;
32445;SDS011;18899;50.748;7.102;2022-11-20T00:40:59;27.85;;;13.00;;
32445;SDS011;18899;50.748;7.102;2022-11-20T00:43:26;30.42;;;13.02;;
32445;SDS011;18899;50.748;7.102;2022-11-20T00:46:02;29.63;;;13.25;;
32445;SDS011;18899;50.748;7.102;2022-11-20T00:48:30;27.67;;;12.90;;
32445;SDS011;18899;50.748;7.102;2022-11-20T00:50:56;26.13;;;12.23;;
32445;SDS011;18899;50.748;7.102;2022-11-20T00:53:22;24.00;;;12.40;;
32445;SDS011;18899;50.748;7.102;2022-11-20T00:56:01;29.77;;;13.05;;
32445;SDS011;18899;50.748;7.102;2022-11-20T00:58:30;32.13;;;13.52;;
32445;SDS011;18899;50.748;7.102;2022-11-20T01:01:00;23.95;;;11.52;;
32445;SDS011;18899;50.748;7.102;2022-11-20T01:03:34;32.40;;;13.88;;
32445;SDS011;18899;50.748;7.102;2022-11-20T01:06:02;22.98;;;11.10;;
32445;SDS011;18899;50.748;7.102;2022-11-20T01:08:30;30.35;;;13.20;;
32445;SDS011;18899;50.748;7.102;2022-11-20T01:11:00;29.33;;;13.30;;
32445;SDS011;18899;50.748;7.102;2022-11-20T01:13:27;26.92;;;12.50;;
32445;SDS011;18899;50.748;7.102;2022-11-20T01:16:04;30.48;;;13.35;;
32445;SDS011;18899;50.748;7.102;2022-11-20T01:18:32;28.50;;;12.80;;
32445;SDS011;18899;50.748;7.102;2022-11-20T01:21:02;28.52;;;12.65;;
32445;SDS011;18899;50.748;7.102;2022-11-20T01:23:31;28.30;;;13.02;;
32445;SDS011;18899;50.748;7.102;2022-11-20T01:26:01;27.27;;;13.07;;
32445;SDS011;18899;50.748;7.102;2022-11-20T01:28:29;30.65;;;12.88;;
32445;SDS011;18899;50.748;7.102;2022-11-20T01:30:55;31.67;;;14.18;;
32445;SDS011;18899;50.748;7.102;2022-11-20T01:33:21;27.63;;;13.07;;
32445;SDS011;18899;50.748;7.102;2022-11-20T01:35:46;25.20;;;12.02;;
32445;SDS011;18899;50.748;7.102;2022-11-20T01:38:12;27.83;;;13.00;;
32445;SDS011;18899;50.748;7.102;2022-11-20T01:40:37;28.48;;;13.68;;
32445;SDS011;18899;50.748;7.102;2022-11-20T01:51:15;27.02;;;12.90;;
32445;SDS011;18899;50.748;7.102;2022-11-20T01:53:45;25.25;;;11.65;;
32445;SDS011;18899;50.748;7.102;2022-11-20T01:56:12;21.48;;;11.23;;
32445;SDS011;18899;50.748;7.102;2022-11-20T01:58:41;23.02;;;11.43;;
32445;SDS011;18899;50.748;7.102;2022-11-20T02:01:12;26.25;;;11.07;;
32445;SDS011;18899;50.748;7.102;2022-11-20T02:03:38;22.95;;;10.57;;
32445;SDS011;18899;50.748;7.102;2022-11-20T02:08:46;23.10;;;10.93;;
32445;SDS011;18899;50.748;7.102;2022-11-20T02:11:12;22.20;;;11.32;;
32445;SDS011;18899;50.748;7.102;2022-11-20T02:13:37;25.02;;;10.73;;
32445;SDS011;18899;50.748;7.102;2022-11-20T02:18:55;22.65;;;11.43;;
32445;SDS011;18899;50.748;7.102;2022-11-20T02:24:09;22.63;;;10.30;;
32445;SDS011;18899;50.748;7.102;2022-11-20T02:26:41;22.75;;;10.73;;
32445;SDS011;18899;50.748;7.102;2022-11-20T02:29:15;22.95;;;11.40;;
32445;SDS011;18899;50.748;7.102;2022-11-20T02:31:44;24.35;;;11.68;;
32445;SDS011;18899;50.748;7.102;2022-11-20T02:34:10;24.55;;;11.23;;
32445;SDS011;18899;50.748;7.102;2022-11-20T02:36:36;24.40;;;11.60;;
32445;SDS011;18899;50.748;7.102;2022-11-20T02:39:04;23.48;;;12.35;;
32445;SDS011;18899;50.748;7.102;2022-11-20T02:41:32;26.65;;;11.98;;
32445;SDS011;18899;50.748;7.102;2022-11-20T02:44:01;26.58;;;13.07;;
32445;SDS011;18899;50.748;7.102;2022-11-20T02:46:27;25.65;;;12.20;;
32445;SDS011;18899;50.748;7.102;2022-11-20T02:48:53;25.15;;;11.38;;
32445;SDS011;18899;50.748;7.102;2022-11-20T02:51:18;25.85;;;12.32;;
32445;SDS011;18899;50.748;7.102;2022-11-20T02:53:44;25.42;;;11.95;;
32445;SDS011;18899;50.748;7.102;2022-11-20T02:56:10;27.08;;;11.98;;
32445;SDS011;18899;50.748;7.102;2022-11-20T02:58:35;27.30;;;11.95;;
32445;SDS011;18899;50.748;7.102;2022-11-20T03:01:01;24.50;;;11.85;;
32445;SDS011;18899;50.748;7.102;2022-11-20T03:03:26;26.73;;;11.98;;
32445;SDS011;18899;50.748;7.102;2022-11-20T03:05:52;23.60;;;11.55;;
32445;SDS011;18899;50.748;7.102;2022-11-20T03:08:17;26.73;;;11.23;;
32445;SDS011;18899;50.748;7.102;2022-11-20T03:10:43;27.63;;;12.18;;
32445;SDS011;18899;50.748;7.102;2022-11-20T03:13:08;27.83;;;13.13;;
32445;SDS011;18899;50.748;7.102;2022-11-20T03:15:35;28.45;;;13.38;;
32445;SDS011;18899;50.748;7.102;2022-11-20T03:18:02;28.20;;;12.52;;
32445;SDS011;18899;50.748;7.102;2022-11-20T03:20:27;33.78;;;13.63;;
32445;SDS011;18899;50.748;7.102;2022-11-20T03:22:53;32.00;;;14.18;;
32445;SDS011;18899;50.748;7.102;2022-11-20T03:25:19;26.90;;;12.98;;
32445;SDS011;18899;50.748;7.102;2022-11-20T03:27:45;30.50;;;14.27;;
32445;SDS011;18899;50.748;7.102;2022-11-20T03:30:11;33.55;;;15.18;;
32445;SDS011;18899;50.748;7.102;2022-11-20T03:32:37;38.65;;;15.45;;
32445;SDS011;18899;50.748;7.102;2022-11-20T03:35:03;30.33;;;13.30;;
32445;SDS011;18899;50.748;7.102;2022-11-20T03:37:28;32.60;;;14.63;;
32445;SDS011;18899;50.748;7.102;2022-11-20T03:39:54;36.10;;;15.85;;
32445;SDS011;18899;50.748;7.102;2022-11-20T03:42:19;29.95;;;13.82;;
32445;SDS011;18899;50.748;7.102;2022-11-20T03:45:04;29.40;;;13.82;;
32445;SDS011;18899;50.748;7.102;2022-11-20T03:47:30;34.30;;;14.90;;
32445;SDS011;18899;50.748;7.102;2022-11-20T03:49:55;34.65;;;15.10;;
32445;SDS011;18899;50.748;7.102;2022-11-20T03:52:20;35.47;;;15.40;;
32445;SDS011;18899;50.748;7.102;2022-11-20T03:54:46;36.17;;;15.38;;
32445;SDS011;18899;50.748;7.102;2022-11-20T03:57:11;35.83;;;14.65;;
32445;SDS011;18899;50.748;7.102;2022-11-20T03:59:37;38.50;;;15.80;;
32445;SDS011;18899;50.748;7.102;2022-11-20T04:02:02;42.25;;;15.50;;
32445;SDS011;18899;50.748;7.102;2022-11-20T04:04:28;40.80;;;17.17;;
32445;SDS011;18899;50.748;7.102;2022-11-20T04:06:53;37.17;;;16.02;;
32445;SDS011;18899;50.748;7.102;2022-11-20T04:09:19;37.25;;;15.65;;
32445;SDS011;18899;50.748;7.102;2022-11-20T04:11:45;37.47;;;15.65;;
32445;SDS011;18899;50.748;7.102;2022-11-20T04:14:14;38.60;;;16.40;;
32445;SDS011;18899;50.748;7.102;2022-11-20T04:16:40;39.10;;;14.98;;
32445;SDS011;18899;50.748;7.102;2022-11-20T04:19:08;36.08;;;16.20;;
32445;SDS011;18899;50.748;7.102;2022-11-20T04:21:38;35.67;;;15.05;;
32445;SDS011;18899;50.748;7.102;2022-11-20T04:24:04;36.28;;;15.57;;
32445;SDS011;18899;50.748;7.102;2022-11-20T04:26:30;43.13;;;16.17;;
32445;SDS011;18899;50.748;7.102;2022-11-20T04:28:56;37.45;;;15.27;;
32445;SDS011;18899;50.748;7.102;2022-11-20T04:31:27;38.78;;;15.80;;
32445;SDS011;18899;50.748;7.102;2022-11-20T04:33:54;40.53;;;16.45;;
32445;SDS011;18899;50.748;7.102;2022-11-20T04:36:23;34.03;;;15.25;;
32445;SDS011;18899;50.748;7.102;2022-11-20T04:38:53;37.27;;;15.93;;
32445;SDS011;18899;50.748;7.102;2022-11-20T04:41:30;36.78;;;15.48;;
32445;SDS011;18899;50.748;7.102;2022-11-20T04:43:59;34.92;;;14.68;;
32445;SDS011;18899;50.748;7.102;2022-11-20T04:46:28;37.22;;;15.55;;
32445;SDS011;18899;50.748;7.102;2022-11-20T04:48:55;31.02;;;13.70;;
32445;SDS011;18899;50.748;7.102;2022-11-20T04:51:21;36.92;;;15.13;;
32445;SDS011;18899;50.748;7.102;2022-11-20T04:53:47;31.42;;;14.80;;
32445;SDS011;18899;50.748;7.102;2022-11-20T04:56:13;36.90;;;15.00;;
32445;SDS011;18899;50.748;7.102;2022-11-20T04:58:39;38.88;;;15.38;;
32445;SDS011;18899;50.748;7.102;2022-11-20T05:03:40;36.88;;;14.73;;
32445;SDS011;18899;50.748;7.102;2022-11-20T05:06:06;38.72;;;15.13;;
32445;SDS011;18899;50.748;7.102;2022-11-20T05:08:33;34.85;;;14.48;;
32445;SDS011;18899;50.748;7.102;2022-11-20T05:11:02;37.47;;;15.35;;
32445;SDS011;18899;50.748;7.102;2022-11-20T05:13:29;35.47;;;14.90;;
32445;SDS011;18899;50.748;7.102;2022-11-20T05:15:55;32.70;;;15.13;;
32445;SDS011;18899;50.748;7.102;2022-11-20T05:18:25;40.90;;;15.70;;
32445;SDS011;18899;50.748;7.102;2022-11-20T05:20:54;38.38;;;15.02;;
32445;SDS011;18899;50.748;7.102;2022-11-20T05:23:21;35.55;;;15.30;;
32445;SDS011;18899;50.748;7.102;2022-11-20T05:25:46;36.53;;;14.80;;
32445;SDS011;18899;50.748;7.102;2022-11-20T05:28:12;39.33;;;15.50;;
32445;SDS011;18899;50.748;7.102;2022-11-20T05:30:38;37.63;;;15.13;;
32445;SDS011;18899;50.748;7.102;2022-11-20T05:33:03;35.95;;;16.10;;
32445;SDS011;18899;50.748;7.102;2022-11-20T05:35:29;33.95;;;14.65;;
32445;SDS011;18899;50.748;7.102;2022-11-20T05:37:54;34.22;;;15.27;;
32445;SDS011;18899;50.748;7.102;2022-11-20T05:40:19;40.05;;;15.73;;
32445;SDS011;18899;50.748;7.102;2022-11-20T05:42:45;39.53;;;15.07;;
32445;SDS011;18899;50.748;7.102;2022-11-20T05:45:10;41.50;;;13.88;;
32445;SDS011;18899;50.748;7.102;2022-11-20T05:47:36;41.33;;;16.63;;
32445;SDS011;18899;50.748;7.102;2022-11-20T05:50:02;39.30;;;15.82;;
32445;SDS011;18899;50.748;7.102;2022-11-20T05:52:28;43.13;;;16.42;;
32445;SDS011;18899;50.748;7.102;2022-11-20T05:54:54;38.67;;;15.50;;
32445;SDS011;18899;50.748;7.102;2022-11-20T05:57:20;41.33;;;15.32;;
32445;SDS011;18899;50.748;7.102;2022-11-20T05:59:45;40.85;;;15.95;;
32445;SDS011;18899;50.748;7.102;2022-11-20T06:02:11;38.50;;;16.10;;
32445;SDS011;18899;50.748;7.102;2022-11-20T06:04:36;37.55;;;15.77;;
32445;SDS011;18899;50.748;7.102;2022-11-20T06:07:02;42.97;;;17.15;;
32445;SDS011;18899;50.748;7.102;2022-11-20T06:09:27;43.53;;;17.08;;
32445;SDS011;18899;50.748;7.102;2022-11-20T06:11:53;41.30;;;16.30;;
32445;SDS011;18899;50.748;7.102;2022-11-20T06:14:18;38.85;;;16.02;;
32445;SDS011;18899;50.748;7.102;2022-11-20T06:16:44;37.63;;;14.98;;
32445;SDS011;18899;50.748;7.102;2022-11-20T06:19:09;35.28;;;15.70;;
32445;SDS011;18899;50.748;7.102;2022-11-20T06:21:35;33.28;;;14.35;;
32445;SDS011;18899;50.748;7.102;2022-11-20T06:24:00;31.70;;;14.60;;
32445;SDS011;18899;50.748;7.102;2022-11-20T06:26:26;26.95;;;12.68;;
32445;SDS011;18899;50.748;7.102;2022-11-20T06:28:52;29.35;;;13.68;;
32445;SDS011;18899;50.748;7.102;2022-11-20T06:31:20;29.13;;;14.00;;
32445;SDS011;18899;50.748;7.102;2022-11-20T06:33:47;27.45;;;12.93;;
32445;SDS011;18899;50.748;7.102;2022-11-20T06:36:14;31.23;;;12.40;;
32445;SDS011;18899;50.748;7.102;2022-11-20T06:38:41;27.63;;;12.43;;
32445;SDS011;18899;50.748;7.102;2022-11-20T06:41:08;29.42;;;12.30;;
32445;SDS011;18899;50.748;7.102;2022-11-20T06:43:37;27.67;;;12.70;;
32445;SDS011;18899;50.748;7.102;2022-11-20T06:46:03;26.50;;;12.38;;
32445;SDS011;18899;50.748;7.102;2022-11-20T06:48:29;28.60;;;12.70;;
32445;SDS011;18899;50.748;7.102;2022-11-20T06:50:55;30.13;;;12.65;;
32445;SDS011;18899;50.748;7.102;2022-11-20T06:53:21;28.05;;;13.20;;
32445;SDS011;18899;50.748;7.102;2022-11-20T06:55:48;23.58;;;11.52;;
32445;SDS011;18899;50.748;7.102;2022-11-20T06:58:15;29.17;;;12.75;;
32445;SDS011;18899;50.748;7.102;2022-11-20T07:00:42;28.92;;;13.50;;
32445;SDS011;18899;50.748;7.102;2022-11-20T07:03:08;29.15;;;13.52;;
32445;SDS011;18899;50.748;7.102;2022-11-20T07:05:35;26.00;;;12.18;;
32445;SDS011;18899;50.748;7.102;2022-11-20T07:08:01;26.30;;;12.52;;
32445;SDS011;18899;50.748;7.102;2022-11-20T07:10:28;26.08;;;12.35;;
32445;SDS011;18899;50.748;7.102;2022-11-20T07:12:54;26.30;;;11.68;;
32445;SDS011;18899;50.748;7.102;2022-11-20T07:15:20;23.90;;;11.82;;
32445;SDS011;18899;50.748;7.102;2022-11-20T07:17:49;24.77;;;11.65;;
32445;SDS011;18899;50.748;7.102;2022-11-20T07:20:15;22.67;;;11.43;;
32445;SDS011;18899;50.748;7.102;2022-11-20T07:22:41;24.98;;;11.18;;
32445;SDS011;18899;50.748;7.102;2022-11-20T07:25:07;21.77;;;11.25;;
32445;SDS011;18899;50.748;7.102;2022-11-20T07:27:33;22.45;;;10.70;;
32445;SDS011;18899;50.748;7.102;2022-11-20T07:29:59;26.77;;;11.57;;
32445;SDS011;18899;50.748;7.102;2022-11-20T07:32:25;24.95;;;10.80;;
32445;SDS011;18899;50.748;7.102;2022-11-20T07:34:51;28.92;;;12.20;;
32445;SDS011;18899;50.748;7.102;2022-11-20T07:37:16;29.67;;;12.75;;
32445;SDS011;18899;50.748;7.102;2022-11-20T07:39:42;26.30;;;12.38;;
32445;SDS011;18899;50.748;7.102;2022-11-20T07:42:08;30.15;;;13.30;;
32445;SDS011;18899;50.748;7.102;2022-11-20T07:44:34;28.55;;;13.60;;
32445;SDS011;18899;50.748;7.102;2022-11-20T07:46:59;26.58;;;12.52;;
32445;SDS011;18899;50.748;7.102;2022-11-20T07:49:25;36.95;;;13.63;;
32445;SDS011;18899;50.748;7.102;2022-11-20T07:51:51;25.40;;;12.50;;
32445;SDS011;18899;50.748;7.102;2022-11-20T07:54:18;30.88;;;13.23;;
32445;SDS011;18899;50.748;7.102;2022-11-20T07:56:45;33.80;;;14.40;;
32445;SDS011;18899;50.748;7.102;2022-11-20T07:59:10;34.22;;;14.98;;
32445;SDS011;18899;50.748;7.102;2022-11-20T08:01:37;28.02;;;12.65;;
32445;SDS011;18899;50.748;7.102;2022-11-20T08:04:03;29.40;;;12.43;;
32445;SDS011;18899;50.748;7.102;2022-11-20T08:06:28;27.10;;;13.40;;
32445;SDS011;18899;50.748;7.102;2022-11-20T08:08:54;28.50;;;12.85;;
32445;SDS011;18899;50.748;7.102;2022-11-20T08:11:19;27.67;;;11.80;;
32445;SDS011;18899;50.748;7.102;2022-11-20T08:14:04;34.40;;;13.98;;
32445;SDS011;18899;50.748;7.102;2022-11-20T08:16:39;30.52;;;14.13;;
32445;SDS011;18899;50.748;7.102;2022-11-20T08:19:05;31.42;;;14.07;;
32445;SDS011;18899;50.748;7.102;2022-11-20T08:21:31;29.77;;;12.88;;
32445;SDS011;18899;50.748;7.102;2022-11-20T08:23:57;29.05;;;12.65;;
32445;SDS011;18899;50.748;7.102;2022-11-20T08:26:23;27.05;;;11.82;;
32445;SDS011;18899;50.748;7.102;2022-11-20T08:28:53;28.05;;;12.90;;
32445;SDS011;18899;50.748;7.102;2022-11-20T08:31:26;28.77;;;12.45;;
32445;SDS011;18899;50.748;7.102;2022-11-20T08:33:52;26.95;;;12.65;;
32445;SDS011;18899;50.748;7.102;2022-11-20T08:36:18;34.00;;;13.70;;
32445;SDS011;18899;50.748;7.102;2022-11-20T08:38:51;28.00;;;13.38;;
32445;SDS011;18899;50.748;7.102;2022-11-20T08:41:18;35.97;;;15.10;;
32445;SDS011;18899;50.748;7.102;2022-11-20T08:43:54;31.35;;;14.57;;
32445;SDS011;18899;50.748;7.102;2022-11-20T08:46:20;28.10;;;14.10;;
32445;SDS011;18899;50.748;7.102;2022-11-20T08:48:45;28.90;;;13.85;;
32445;SDS011;18899;50.748;7.102;2022-11-20T08:51:11;28.63;;;13.45;;
32445;SDS011;18899;50.748;7.102;2022-11-20T08:53:37;31.30;;;13.45;;
32445;SDS011;18899;50.748;7.102;2022-11-20T08:56:03;32.22;;;13.45;;
32445;SDS011;18899;50.748;7.102;2022-11-20T08:58:29;32.47;;;13.85;;
32445;SDS011;18899;50.748;7.102;2022-11-20T09:00:55;26.95;;;13.02;;
32445;SDS011;18899;50.748;7.102;2022-11-20T09:03:21;29.23;;;13.25;;
32445;SDS011;18899;50.748;7.102;2022-11-20T09:05:47;34.45;;;13.80;;
32445;SDS011;18899;50.748;7.102;2022-11-20T09:08:12;32.17;;;13.48;;
32445;SDS011;18899;50.748;7.102;2022-11-20T09:10:38;32.72;;;13.85;;
32445;SDS011;18899;50.748;7.102;2022-11-20T09:13:05;26.27;;;13.07;;
32445;SDS011;18899;50.748;7.102;2022-11-20T09:15:31;27.13;;;13.50;;
32445;SDS011;18899;50.748;7.102;2022-11-20T09:18:01;27.90;;;13.68;;
32445;SDS011;18899;50.748;7.102;2022-11-20T09:20:29;28.75;;;13.98;;
32445;SDS011;18899;50.748;7.102;2022-11-20T09:22:55;28.90;;;12.90;;
32445;SDS011;18899;50.748;7.102;2022-11-20T09:25:21;28.65;;;13.18;;
32445;SDS011;18899;50.748;7.102;2022-11-20T09:27:47;27.45;;;13.35;;
32445;SDS011;18899;50.748;7.102;2022-11-20T09:30:13;31.33;;;13.95;;
32445;SDS011;18899;50.748;7.102;2022-11-20T09:32:40;30.95;;;14.05;;
32445;SDS011;18899;50.748;7.102;2022-11-20T09:35:06;29.77;;;12.98;;
32445;SDS011;18899;50.748;7.102;2022-11-20T09:37:32;28.60;;;12.15;;
32445;SDS011;18899;50.748;7.102;2022-11-20T09:39:57;29.13;;;13.60;;
32445;SDS011;18899;50.748;7.102;2022-11-20T09:45:24;30.20;;;14.55;;
32445;SDS011;18899;50.748;7.102;2022-11-20T09:50:56;30.45;;;14.13;;
32445;SDS011;18899;50.748;7.102;2022-11-20T09:56:30;28.20;;;13.20;;
32445;SDS011;18899;50.748;7.102;2022-11-20T09:59:02;29.80;;;13.07;;
32445;SDS011;18899;50.748;7.102;2022-11-20T10:01:31;27.02;;;13.43;;
32445;SDS011;18899;50.748;7.102;2022-11-20T10:04:04;29.15;;;13.38;;
32445;SDS011;18899;50.748;7.102;2022-11-20T10:09:39;25.55;;;13.35;;
32445;SDS011;18899;50.748;7.102;2022-11-20T10:12:11;27.40;;;12.75;;
32445;SDS011;18899;50.748;7.102;2022-11-20T10:20:43;26.38;;;12.32;;
32445;SDS011;18899;50.748;7.102;2022-11-20T10:26:03;27.23;;;13.80;;
32445;SDS011;18899;50.748;7.102;2022-11-20T10:31:34;25.75;;;11.88;;
32445;SDS011;18899;50.748;7.102;2022-11-20T10:34:07;25.80;;;11.65;;
32445;SDS011;18899;50.748;7.102;2022-11-20T10:36:45;26.02;;;12.30;;
32445;SDS011;18899;50.748;7.102;2022-11-20T10:39:22;27.60;;;12.05;;
32445;SDS011;18899;50.748;7.102;2022-11-20T10:42:01;31.95;;;11.50;;
32445;SDS011;18899;50.748;7.102;2022-11-20T10:44:28;27.17;;;12.18;;
32445;SDS011;18899;50.748;7.102;2022-11-20T10:47:14;27.38;;;12.63;;
32445;SDS011;18899;50.748;7.102;2022-11-20T10:49:42;28.88;;;12.60;;
32445;SDS011;18899;50.748;7.102;2022-11-20T10:54:41;24.42;;;11.07;;
32445;SDS011;18899;50.748;7.102;2022-11-20T10:57:25;28.85;;;12.85;;
32445;SDS011;18899;50.748;7.102;2022-11-20T11:00:05;26.13;;;11.13;;
32445;SDS011;18899;50.748;7.102;2022-11-20T11:02:35;25.85;;;11.60;;
32445;SDS011;18899;50.748;7.102;2022-11-20T11:05:08;28.25;;;11.93;;
32445;SDS011;18899;50.748;7.102;2022-11-20T11:07:41;26.17;;;11.27;;
32445;SDS011;18899;50.748;7.102;2022-11-20T11:10:21;23.00;;;10.88;;
32445;SDS011;18899;50.748;7.102;2022-11-20T11:13:03;23.33;;;10.68;;
32445;SDS011;18899;50.748;7.102;2022-11-20T11:18:01;22.55;;;10.93;;
32445;SDS011;18899;50.748;7.102;2022-11-20T11:20:27;23.33;;;10.68;;
32445;SDS011;18899;50.748;7.102;2022-11-20T11:22:54;22.23;;;10.57;;
32445;SDS011;18899;50.748;7.102;2022-11-20T11:25:28;22.92;;;10.73;;
32445;SDS011;18899;50.748;7.102;2022-11-20T11:27:55;23.55;;;10.88;;
32445;SDS011;18899;50.748;7.102;2022-11-20T11:30:23;25.00;;;11.05;;
32445;SDS011;18899;50.748;7.102;2022-11-20T11:32:50;24.27;;;11.25;;
32445;SDS011;18899;50.748;7.102;2022-11-20T11:35:27;24.48;;;10.20;;
32445;SDS011;18899;50.748;7.102;2022-11-20T11:38:06;25.10;;;10.77;;
32445;SDS011;18899;50.748;7.102;2022-11-20T11:40:38;26.48;;;9.95;;
32445;SDS011;18899;50.748;7.102;2022-11-20T11:43:06;20.17;;;9.85;;
32445;SDS011;18899;50.748;7.102;2022-11-20T11:46:02;23.02;;;10.77;;
32445;SDS011;18899;50.748;7.102;2022-11-20T11:48:29;22.80;;;10.32;;
32445;SDS011;18899;50.748;7.102;2022-11-20T11:50:55;25.90;;;11.32;;
32445;SDS011;18899;50.748;7.102;2022-11-20T11:53:21;23.42;;;11.70;;
32445;SDS011;18899;50.748;7.102;2022-11-20T11:55:54;26.40;;;10.85;;
32445;SDS011;18899;50.748;7.102;2022-11-20T11:58:44;24.00;;;11.15;;
32445;SDS011;18899;50.748;7.102;2022-11-20T12:01:20;25.77;;;11.32;;
32445;SDS011;18899;50.748;7.102;2022-11-20T12:07:14;23.75;;;10.77;;
32445;SDS011;18899;50.748;7.102;2022-11-20T12:09:52;28.73;;;11.95;;
32445;SDS011;18899;50.748;7.102;2022-11-20T12:12:20;29.17;;;12.55;;
32445;SDS011;18899;50.748;7.102;2022-11-20T12:14:52;23.67;;;11.45;;
32445;SDS011;18899;50.748;7.102;2022-11-20T12:17:20;24.00;;;10.95;;
32445;SDS011;18899;50.748;7.102;2022-11-20T12:19:45;24.98;;;10.70;;
32445;SDS011;18899;50.748;7.102;2022-11-20T12:27:21;21.42;;;9.85;;
32445;SDS011;18899;50.748;7.102;2022-11-20T12:30:13;24.45;;;11.38;;
32445;SDS011;18899;50.748;7.102;2022-11-20T12:32:50;23.30;;;10.70;;
32445;SDS011;18899;50.748;7.102;2022-11-20T12:35:49;23.45;;;9.90;;
32445;SDS011;18899;50.748;7.102;2022-11-20T12:47:16;23.67;;;10.98;;
32445;SDS011;18899;50.748;7.102;2022-11-20T12:49:58;25.50;;;10.52;;
32445;SDS011;18899;50.748;7.102;2022-11-20T13:06:40;21.23;;;10.60;;
32445;SDS011;18899;50.748;7.102;2022-11-20T13:09:12;21.60;;;10.43;;
32445;SDS011;18899;50.748;7.102;2022-11-20T13:11:42;24.88;;;10.20;;
32445;SDS011;18899;50.748;7.102;2022-11-20T13:16:57;21.88;;;10.30;;
32445;SDS011;18899;50.748;7.102;2022-11-20T13:19:33;24.70;;;10.82;;
32445;SDS011;18899;50.748;7.102;2022-11-20T13:21:59;22.88;;;11.15;;
32445;SDS011;18899;50.748;7.102;2022-11-20T13:24:29;21.17;;;10.75;;
32445;SDS011;18899;50.748;7.102;2022-11-20T13:29:33;19.98;;;9.98;;
32445;SDS011;18899;50.748;7.102;2022-11-20T13:32:04;22.38;;;10.20;;
32445;SDS011;18899;50.748;7.102;2022-11-20T13:34:31;20.80;;;9.80;;
32445;SDS011;18899;50.748;7.102;2022-11-20T13:36:58;21.70;;;10.65;;
32445;SDS011;18899;50.748;7.102;2022-11-20T13:39:35;23.25;;;10.45;;
32445;SDS011;18899;50.748;7.102;2022-11-20T13:42:35;21.55;;;10.23;;
32445;SDS011;18899;50.748;7.102;2022-11-20T13:44:54;18.45;;;9.45;;
32445;SDS011;18899;50.748;7.102;2022-11-20T13:47:26;23.52;;;10.95;;
32445;SDS011;18899;50.748;7.102;2022-11-20T13:49:53;21.02;;;9.63;;
32445;SDS011;18899;50.748;7.102;2022-11-20T13:58:10;20.75;;;8.93;;
32445;SDS011;18899;50.748;7.102;2022-11-20T14:00:51;20.92;;;9.73;;
32445;SDS011;18899;50.748;7.102;2022-11-20T14:03:23;20.02;;;9.85;;
32445;SDS011;18899;50.748;7.102;2022-11-20T14:05:56;19.08;;;9.35;;
32445;SDS011;18899;50.748;7.102;2022-11-20T14:08:32;19.83;;;9.95;;
32445;SDS011;18899;50.748;7.102;2022-11-20T14:11:04;21.48;;;9.40;;
32445;SDS011;18899;50.748;7.102;2022-11-20T14:13:52;22.45;;;9.63;;
32445;SDS011;18899;50.748;7.102;2022-11-20T14:16:33;20.33;;;9.23;;
32445;SDS011;18899;50.748;7.102;2022-11-20T14:21:44;20.08;;;8.75;;
32445;SDS011;18899;50.748;7.102;2022-11-20T14:24:11;19.08;;;9.00;;
32445;SDS011;18899;50.748;7.102;2022-11-20T14:26:46;18.83;;;9.32;;
32445;SDS011;18899;50.748;7.102;2022-11-20T14:29:13;21.35;;;10.02;;
32445;SDS011;18899;50.748;7.102;2022-11-20T14:31:40;18.52;;;9.02;;
32445;SDS011;18899;50.748;7.102;2022-11-20T14:34:12;18.55;;;8.95;;
32445;SDS011;18899;50.748;7.102;2022-11-20T14:36:42;18.25;;;8.85;;
32445;SDS011;18899;50.748;7.102;2022-11-20T14:39:11;21.10;;;9.73;;
32445;SDS011;18899;50.748;7.102;2022-11-20T14:41:53;17.80;;;8.57;;
32445;SDS011;18899;50.748;7.102;2022-11-20T14:44:52;17.42;;;8.10;;
32445;SDS011;18899;50.748;7.102;2022-11-20T14:47:13;18.92;;;8.68;;
32445;SDS011;18899;50.748;7.102;2022-11-20T14:49:43;18.00;;;8.77;;
32445;SDS011;18899;50.748;7.102;2022-11-20T14:52:11;20.75;;;8.57;;
32445;SDS011;18899;50.748;7.102;2022-11-20T14:54:43;19.75;;;9.00;;
32445;SDS011;18899;50.748;7.102;2022-11-20T14:57:18;18.55;;;9.13;;
32445;SDS011;18899;50.748;7.102;2022-11-20T14:59:44;16.80;;;8.07;;
32445;SDS011;18899;50.748;7.102;2022-11-20T15:02:10;22.08;;;9.32;;
32445;SDS011;18899;50.748;7.102;2022-11-20T15:04:47;18.80;;;8.75;;
32445;SDS011;18899;50.748;7.102;2022-11-20T15:07:28;18.55;;;9.25;;
32445;SDS011;18899;50.748;7.102;2022-11-20T15:10:00;18.33;;;8.90;;
32445;SDS011;18899;50.748;7.102;2022-11-20T15:12:29;21.35;;;8.77;;
32445;SDS011;18899;50.748;7.102;2022-11-20T15:14:56;18.33;;;8.43;;
32445;SDS011;18899;50.748;7.102;2022-11-20T15:17:22;17.05;;;8.63;;
32445;SDS011;18899;50.748;7.102;2022-11-20T15:19:48;16.90;;;7.55;;
32445;SDS011;18899;50.748;7.102;2022-11-20T15:22:13;14.30;;;6.25;;
32445;SDS011;18899;50.748;7.102;2022-11-20T15:24:41;12.13;;;5.60;;
32445;SDS011;18899;50.748;7.102;2022-11-20T15:27:07;10.05;;;4.45;;
32445;SDS011;18899;50.748;7.102;2022-11-20T15:29:34;11.52;;;4.70;;
32445;SDS011;18899;50.748;7.102;2022-11-20T15:31:59;7.70;;;4.13;;
32445;SDS011;18899;50.748;7.102;2022-11-20T15:34:26;7.45;;;3.95;;
32445;SDS011;18899;50.748;7.102;2022-11-20T15:36:52;8.23;;;4.20;;
32445;SDS011;18899;50.748;7.102;2022-11-20T15:39:19;11.60;;;4.35;;
32445;SDS011;18899;50.748;7.102;2022-11-20T15:41:45;4.13;;;2.40;;
32445;SDS011;18899;50.748;7.102;2022-11-20T15:44:10;7.50;;;3.05;;
32445;SDS011;18899;50.748;7.102;2022-11-20T15:46:37;8.60;;;3.17;;
32445;SDS011;18899;50.748;7.102;2022-11-20T15:49:10;8.23;;;3.30;;
32445;SDS011;18899;50.748;7.102;2022-11-20T15:51:38;11.85;;;3.10;;
32445;SDS011;18899;50.748;7.102;2022-11-20T15:54:10;11.25;;;4.03;;
32445;SDS011;18899;50.748;7.102;2022-11-20T15:56:36;7.30;;;3.70;;
32445;SDS011;18899;50.748;7.102;2022-11-20T15:59:02;6.72;;;3.42;;
32445;SDS011;18899;50.748;7.102;2022-11-20T16:01:28;4.20;;;2.28;;
32445;SDS011;18899;50.748;7.102;2022-11-20T16:03:53;4.07;;;2.08;;
32445;SDS011;18899;50.748;7.102;2022-11-20T16:06:19;2.20;;;1.50;;